sensor_id;sensor_type;location;lat;lon;timestamp;P1;durP1;ratioP1;P2;durP2;ratioP2
12603;SDS011;6367;52.508;13.284;2023-11-18T00:00:37;5.80;;;5.27;;
12603;SDS011;6367;52.508;13.284;2023-11-18T00:03:04;6.33;;;5.73;;
12603;SDS011;6367;52.508;13.284;2023-11-18T00:05:30;6.63;;;6.03;;
12603;SDS011;6367;52.508;13.284;2023-11-18T00:07:56;5.33;;;4.83;;
12603;SDS011;6367;52.508;13.284;2023-11-18T00:10:21;6.50;;;5.90;;
12603;SDS011;6367;52.508;13.284;2023-11-18T00:12:48;5.63;;;5.10;;
12603;SDS011;6367;52.508;13.284;2023-11-18T00:15:15;7.07;;;6.47;;
12603;SDS011;6367;52.508;13.284;2023-11-18T00:17:41;6.67;;;5.97;;
12603;SDS011;6367;52.508;13.284;2023-11-18T00:20:06;8.70;;;5.80;;
12603;SDS011;6367;52.508;13.284;2023-11-18T00:22:37;8.60;;;6.40;;
12603;SDS011;6367;52.508;13.284;2023-11-18T00:25:04;6.07;;;5.53;;
12603;SDS011;6367;52.508;13.284;2023-11-18T00:27:32;6.67;;;6.00;;
12603;SDS011;6367;52.508;13.284;2023-11-18T00:30:01;6.20;;;5.60;;
12603;SDS011;6367;52.508;13.284;2023-11-18T00:32:30;6.40;;;5.80;;
12603;SDS011;6367;52.508;13.284;2023-11-18T00:34:56;7.00;;;6.30;;
12603;SDS011;6367;52.508;13.284;2023-11-18T00:37:22;5.43;;;4.93;;
12603;SDS011;6367;52.508;13.284;2023-11-18T00:39:48;5.20;;;4.70;;
12603;SDS011;6367;52.508;13.284;2023-11-18T00:42:13;5.90;;;5.40;;
12603;SDS011;6367;52.508;13.284;2023-11-18T00:44:39;6.40;;;5.80;;
12603;SDS011;6367;52.508;13.284;2023-11-18T00:47:06;7.80;;;6.03;;
12603;SDS011;6367;52.508;13.284;2023-11-18T00:49:31;6.50;;;5.90;;
12603;SDS011;6367;52.508;13.284;2023-11-18T00:51:59;7.50;;;5.70;;
12603;SDS011;6367;52.508;13.284;2023-11-18T00:54:24;7.13;;;6.43;;
12603;SDS011;6367;52.508;13.284;2023-11-18T00:56:50;5.53;;;5.00;;
12603;SDS011;6367;52.508;13.284;2023-11-18T00:59:16;6.33;;;5.43;;
12603;SDS011;6367;52.508;13.284;2023-11-18T01:01:41;6.77;;;6.07;;
12603;SDS011;6367;52.508;13.284;2023-11-18T01:04:08;5.83;;;5.33;;
12603;SDS011;6367;52.508;13.284;2023-11-18T01:06:34;6.27;;;5.53;;
12603;SDS011;6367;52.508;13.284;2023-11-18T01:08:59;6.83;;;5.57;;
12603;SDS011;6367;52.508;13.284;2023-11-18T01:11:28;6.43;;;5.93;;
12603;SDS011;6367;52.508;13.284;2023-11-18T01:13:54;6.03;;;5.40;;
12603;SDS011;6367;52.508;13.284;2023-11-18T01:16:21;7.33;;;5.93;;
12603;SDS011;6367;52.508;13.284;2023-11-18T01:18:46;6.47;;;5.63;;
12603;SDS011;6367;52.508;13.284;2023-11-18T01:21:12;6.20;;;5.60;;
12603;SDS011;6367;52.508;13.284;2023-11-18T01:23:38;6.97;;;5.77;;
12603;SDS011;6367;52.508;13.284;2023-11-18T01:26:09;5.53;;;5.03;;
12603;SDS011;6367;52.508;13.284;2023-11-18T01:28:37;5.83;;;5.27;;
12603;SDS011;6367;52.508;13.284;2023-11-18T01:31:07;6.00;;;5.40;;
12603;SDS011;6367;52.508;13.284;2023-11-18T01:33:36;6.73;;;5.67;;
12603;SDS011;6367;52.508;13.284;2023-11-18T01:36:05;6.20;;;5.60;;
12603;SDS011;6367;52.508;13.284;2023-11-18T01:38:31;7.03;;;6.33;;
12603;SDS011;6367;52.508;13.284;2023-11-18T01:40:57;7.00;;;6.20;;
12603;SDS011;6367;52.508;13.284;2023-11-18T01:43:22;7.30;;;6.60;;
12603;SDS011;6367;52.508;13.284;2023-11-18T01:45:48;8.90;;;6.10;;
12603;SDS011;6367;52.508;13.284;2023-11-18T01:48:14;8.13;;;6.57;;
12603;SDS011;6367;52.508;13.284;2023-11-18T01:50:43;6.40;;;5.80;;
12603;SDS011;6367;52.508;13.284;2023-11-18T01:53:12;6.80;;;6.10;;
12603;SDS011;6367;52.508;13.284;2023-11-18T01:55:39;6.50;;;5.80;;
12603;SDS011;6367;52.508;13.284;2023-11-18T01:58:05;6.70;;;6.10;;
12603;SDS011;6367;52.508;13.284;2023-11-18T02:00:36;7.47;;;6.63;;
12603;SDS011;6367;52.508;13.284;2023-11-18T02:03:04;6.20;;;5.60;;
12603;SDS011;6367;52.508;13.284;2023-11-18T02:05:31;6.07;;;5.47;;
12603;SDS011;6367;52.508;13.284;2023-11-18T02:07:58;6.47;;;5.87;;
12603;SDS011;6367;52.508;13.284;2023-11-18T02:10:25;6.47;;;5.87;;
12603;SDS011;6367;52.508;13.284;2023-11-18T02:12:55;7.63;;;5.80;;
12603;SDS011;6367;52.508;13.284;2023-11-18T02:15:32;5.87;;;5.10;;
12603;SDS011;6367;52.508;13.284;2023-11-18T02:17:59;6.90;;;6.20;;
12603;SDS011;6367;52.508;13.284;2023-11-18T02:20:28;6.80;;;5.97;;
12603;SDS011;6367;52.508;13.284;2023-11-18T02:22:55;6.50;;;5.90;;
12603;SDS011;6367;52.508;13.284;2023-11-18T02:25:21;6.97;;;6.27;;
12603;SDS011;6367;52.508;13.284;2023-11-18T02:27:52;7.13;;;5.70;;
12603;SDS011;6367;52.508;13.284;2023-11-18T02:30:18;6.40;;;5.80;;
12603;SDS011;6367;52.508;13.284;2023-11-18T02:32:57;6.60;;;5.20;;
12603;SDS011;6367;52.508;13.284;2023-11-18T02:35:30;7.17;;;5.93;;
12603;SDS011;6367;52.508;13.284;2023-11-18T02:38:02;6.50;;;5.87;;
12603;SDS011;6367;52.508;13.284;2023-11-18T02:40:33;8.20;;;6.93;;
12603;SDS011;6367;52.508;13.284;2023-11-18T02:43:06;7.90;;;7.10;;
12603;SDS011;6367;52.508;13.284;2023-11-18T02:45:34;6.53;;;5.30;;
12603;SDS011;6367;52.508;13.284;2023-11-18T02:48:01;7.93;;;6.03;;
12603;SDS011;6367;52.508;13.284;2023-11-18T02:50:28;7.70;;;6.43;;
12603;SDS011;6367;52.508;13.284;2023-11-18T02:52:54;9.00;;;6.50;;
12603;SDS011;6367;52.508;13.284;2023-11-18T02:55:20;8.43;;;6.60;;
12603;SDS011;6367;52.508;13.284;2023-11-18T02:57:47;7.83;;;7.03;;
12603;SDS011;6367;52.508;13.284;2023-11-18T03:00:14;8.00;;;7.00;;
12603;SDS011;6367;52.508;13.284;2023-11-18T03:02:46;7.23;;;6.53;;
12603;SDS011;6367;52.508;13.284;2023-11-18T03:05:13;6.67;;;6.07;;
12603;SDS011;6367;52.508;13.284;2023-11-18T03:07:49;7.57;;;6.77;;
12603;SDS011;6367;52.508;13.284;2023-11-18T03:10:18;6.20;;;5.60;;
12603;SDS011;6367;52.508;13.284;2023-11-18T03:12:51;6.57;;;5.90;;
12603;SDS011;6367;52.508;13.284;2023-11-18T03:15:17;8.97;;;5.70;;
12603;SDS011;6367;52.508;13.284;2023-11-18T03:17:44;6.53;;;5.43;;
12603;SDS011;6367;52.508;13.284;2023-11-18T03:20:11;7.03;;;6.33;;
12603;SDS011;6367;52.508;13.284;2023-11-18T03:22:39;8.37;;;6.00;;
12603;SDS011;6367;52.508;13.284;2023-11-18T03:25:05;7.73;;;5.50;;
12603;SDS011;6367;52.508;13.284;2023-11-18T03:27:32;6.03;;;5.47;;
12603;SDS011;6367;52.508;13.284;2023-11-18T03:29:58;6.13;;;5.53;;
12603;SDS011;6367;52.508;13.284;2023-11-18T03:32:24;6.10;;;5.50;;
12603;SDS011;6367;52.508;13.284;2023-11-18T03:34:50;6.37;;;5.77;;
12603;SDS011;6367;52.508;13.284;2023-11-18T03:37:15;6.13;;;5.53;;
12603;SDS011;6367;52.508;13.284;2023-11-18T03:39:41;6.40;;;5.80;;
12603;SDS011;6367;52.508;13.284;2023-11-18T03:42:07;9.13;;;5.97;;
12603;SDS011;6367;52.508;13.284;2023-11-18T03:44:33;6.03;;;5.37;;
12603;SDS011;6367;52.508;13.284;2023-11-18T03:46:59;6.10;;;5.50;;
12603;SDS011;6367;52.508;13.284;2023-11-18T03:49:24;6.10;;;5.33;;
12603;SDS011;6367;52.508;13.284;2023-11-18T03:51:50;6.70;;;5.40;;
12603;SDS011;6367;52.508;13.284;2023-11-18T03:54:16;7.70;;;6.40;;
12603;SDS011;6367;52.508;13.284;2023-11-18T03:56:41;6.50;;;5.87;;
12603;SDS011;6367;52.508;13.284;2023-11-18T03:59:07;7.13;;;6.00;;
12603;SDS011;6367;52.508;13.284;2023-11-18T04:01:32;7.30;;;6.40;;
12603;SDS011;6367;52.508;13.284;2023-11-18T04:03:59;6.40;;;5.80;;
12603;SDS011;6367;52.508;13.284;2023-11-18T04:06:25;8.33;;;6.80;;
12603;SDS011;6367;52.508;13.284;2023-11-18T04:08:50;7.53;;;6.50;;
12603;SDS011;6367;52.508;13.284;2023-11-18T04:11:16;6.30;;;5.70;;
12603;SDS011;6367;52.508;13.284;2023-11-18T04:13:43;7.37;;;6.13;;
12603;SDS011;6367;52.508;13.284;2023-11-18T04:16:15;6.80;;;6.20;;
12603;SDS011;6367;52.508;13.284;2023-11-18T04:18:42;8.50;;;7.30;;
12603;SDS011;6367;52.508;13.284;2023-11-18T04:21:08;10.40;;;6.73;;
12603;SDS011;6367;52.508;13.284;2023-11-18T04:23:38;8.07;;;6.97;;
12603;SDS011;6367;52.508;13.284;2023-11-18T04:26:06;8.77;;;6.40;;
12603;SDS011;6367;52.508;13.284;2023-11-18T04:28:32;8.00;;;7.20;;
12603;SDS011;6367;52.508;13.284;2023-11-18T04:30:58;8.93;;;7.10;;
12603;SDS011;6367;52.508;13.284;2023-11-18T04:33:24;9.23;;;6.70;;
12603;SDS011;6367;52.508;13.284;2023-11-18T04:35:53;8.60;;;7.73;;
12603;SDS011;6367;52.508;13.284;2023-11-18T04:38:19;7.13;;;6.43;;
12603;SDS011;6367;52.508;13.284;2023-11-18T04:40:45;7.70;;;6.90;;
12603;SDS011;6367;52.508;13.284;2023-11-18T04:43:11;7.83;;;7.03;;
12603;SDS011;6367;52.508;13.284;2023-11-18T04:45:37;8.90;;;7.87;;
12603;SDS011;6367;52.508;13.284;2023-11-18T04:48:04;8.07;;;7.20;;
12603;SDS011;6367;52.508;13.284;2023-11-18T04:50:30;9.67;;;7.43;;
12603;SDS011;6367;52.508;13.284;2023-11-18T04:52:57;8.50;;;7.30;;
12603;SDS011;6367;52.508;13.284;2023-11-18T04:55:23;10.90;;;7.90;;
12603;SDS011;6367;52.508;13.284;2023-11-18T04:57:51;7.97;;;6.90;;
12603;SDS011;6367;52.508;13.284;2023-11-18T05:00:17;7.50;;;6.80;;
12603;SDS011;6367;52.508;13.284;2023-11-18T05:02:44;7.23;;;6.53;;
12603;SDS011;6367;52.508;13.284;2023-11-18T05:05:13;9.03;;;6.70;;
12603;SDS011;6367;52.508;13.284;2023-11-18T05:07:40;8.90;;;7.53;;
12603;SDS011;6367;52.508;13.284;2023-11-18T05:10:06;6.97;;;6.27;;
12603;SDS011;6367;52.508;13.284;2023-11-18T05:12:38;7.77;;;6.97;;
12603;SDS011;6367;52.508;13.284;2023-11-18T05:15:05;9.93;;;7.53;;
12603;SDS011;6367;52.508;13.284;2023-11-18T05:17:36;9.57;;;7.90;;
12603;SDS011;6367;52.508;13.284;2023-11-18T05:20:02;7.13;;;6.43;;
12603;SDS011;6367;52.508;13.284;2023-11-18T05:22:29;7.83;;;7.03;;
12603;SDS011;6367;52.508;13.284;2023-11-18T05:24:54;7.87;;;6.80;;
12603;SDS011;6367;52.508;13.284;2023-11-18T05:27:20;7.20;;;6.50;;
12603;SDS011;6367;52.508;13.284;2023-11-18T05:29:46;9.10;;;7.93;;
12603;SDS011;6367;52.508;13.284;2023-11-18T05:32:19;8.53;;;6.80;;
12603;SDS011;6367;52.508;13.284;2023-11-18T05:34:50;9.00;;;7.10;;
12603;SDS011;6367;52.508;13.284;2023-11-18T05:37:19;9.83;;;7.33;;
12603;SDS011;6367;52.508;13.284;2023-11-18T05:39:45;8.00;;;6.80;;
12603;SDS011;6367;52.508;13.284;2023-11-18T05:42:11;7.20;;;6.20;;
12603;SDS011;6367;52.508;13.284;2023-11-18T05:44:37;7.63;;;6.60;;
12603;SDS011;6367;52.508;13.284;2023-11-18T05:47:07;7.70;;;6.87;;
12603;SDS011;6367;52.508;13.284;2023-11-18T05:49:36;7.60;;;6.30;;
12603;SDS011;6367;52.508;13.284;2023-11-18T05:52:03;7.83;;;6.90;;
12603;SDS011;6367;52.508;13.284;2023-11-18T05:54:30;7.60;;;6.80;;
12603;SDS011;6367;52.508;13.284;2023-11-18T05:56:55;7.73;;;6.93;;
12603;SDS011;6367;52.508;13.284;2023-11-18T05:59:24;7.10;;;6.10;;
12603;SDS011;6367;52.508;13.284;2023-11-18T06:01:52;8.10;;;6.60;;
12603;SDS011;6367;52.508;13.284;2023-11-18T06:04:17;6.77;;;6.00;;
12603;SDS011;6367;52.508;13.284;2023-11-18T06:06:43;8.53;;;7.20;;
12603;SDS011;6367;52.508;13.284;2023-11-18T06:09:09;7.60;;;5.67;;
12603;SDS011;6367;52.508;13.284;2023-11-18T06:11:42;10.47;;;6.47;;
12603;SDS011;6367;52.508;13.284;2023-11-18T06:14:09;10.43;;;6.97;;
12603;SDS011;6367;52.508;13.284;2023-11-18T06:16:37;7.20;;;6.07;;
12603;SDS011;6367;52.508;13.284;2023-11-18T06:19:04;10.50;;;7.27;;
12603;SDS011;6367;52.508;13.284;2023-11-18T06:21:31;8.90;;;7.23;;
12603;SDS011;6367;52.508;13.284;2023-11-18T06:23:57;9.00;;;6.80;;
12603;SDS011;6367;52.508;13.284;2023-11-18T06:26:24;8.47;;;7.00;;
12603;SDS011;6367;52.508;13.284;2023-11-18T06:28:51;7.80;;;6.37;;
12603;SDS011;6367;52.508;13.284;2023-11-18T06:31:18;8.60;;;7.53;;
12603;SDS011;6367;52.508;13.284;2023-11-18T06:33:46;9.90;;;7.33;;
12603;SDS011;6367;52.508;13.284;2023-11-18T06:38:43;8.60;;;7.37;;
12603;SDS011;6367;52.508;13.284;2023-11-18T06:41:09;7.03;;;6.30;;
12603;SDS011;6367;52.508;13.284;2023-11-18T06:43:40;12.93;;;7.37;;
12603;SDS011;6367;52.508;13.284;2023-11-18T06:46:17;8.80;;;6.63;;
12603;SDS011;6367;52.508;13.284;2023-11-18T06:48:45;8.47;;;6.97;;
12603;SDS011;6367;52.508;13.284;2023-11-18T06:51:14;7.00;;;6.30;;
12603;SDS011;6367;52.508;13.284;2023-11-18T06:53:42;9.60;;;7.50;;
12603;SDS011;6367;52.508;13.284;2023-11-18T06:56:09;7.70;;;6.93;;
12603;SDS011;6367;52.508;13.284;2023-11-18T06:58:36;9.63;;;7.53;;
12603;SDS011;6367;52.508;13.284;2023-11-18T07:01:04;9.97;;;8.00;;
12603;SDS011;6367;52.508;13.284;2023-11-18T07:03:31;7.93;;;7.13;;
12603;SDS011;6367;52.508;13.284;2023-11-18T07:05:57;12.80;;;7.03;;
12603;SDS011;6367;52.508;13.284;2023-11-18T07:08:22;9.23;;;8.23;;
12603;SDS011;6367;52.508;13.284;2023-11-18T07:10:49;8.97;;;7.97;;
12603;SDS011;6367;52.508;13.284;2023-11-18T07:13:15;10.40;;;8.13;;
12603;SDS011;6367;52.508;13.284;2023-11-18T07:15:41;10.43;;;7.70;;
12603;SDS011;6367;52.508;13.284;2023-11-18T07:18:07;9.03;;;8.10;;
12603;SDS011;6367;52.508;13.284;2023-11-18T07:22:31;12.17;;;8.43;;
12603;SDS011;6367;52.508;13.284;2023-11-18T07:24:56;9.73;;;8.20;;
12603;SDS011;6367;52.508;13.284;2023-11-18T07:27:22;9.10;;;7.47;;
12603;SDS011;6367;52.508;13.284;2023-11-18T07:29:48;8.90;;;7.53;;
12603;SDS011;6367;52.508;13.284;2023-11-18T07:32:13;10.90;;;7.67;;
12603;SDS011;6367;52.508;13.284;2023-11-18T07:34:39;9.77;;;8.40;;
12603;SDS011;6367;52.508;13.284;2023-11-18T07:37:06;9.57;;;8.57;;
12603;SDS011;6367;52.508;13.284;2023-11-18T07:39:33;9.63;;;8.60;;
12603;SDS011;6367;52.508;13.284;2023-11-18T07:42:13;9.10;;;8.10;;
12603;SDS011;6367;52.508;13.284;2023-11-18T07:44:43;9.23;;;8.20;;
12603;SDS011;6367;52.508;13.284;2023-11-18T07:47:09;11.13;;;8.33;;
12603;SDS011;6367;52.508;13.284;2023-11-18T07:49:36;9.70;;;7.97;;
12603;SDS011;6367;52.508;13.284;2023-11-18T07:52:02;11.30;;;8.80;;
12603;SDS011;6367;52.508;13.284;2023-11-18T07:54:28;9.90;;;8.67;;
12603;SDS011;6367;52.508;13.284;2023-11-18T07:56:53;10.20;;;7.50;;
12603;SDS011;6367;52.508;13.284;2023-11-18T07:59:20;8.37;;;7.50;;
12603;SDS011;6367;52.508;13.284;2023-11-18T08:01:45;12.43;;;8.40;;
12603;SDS011;6367;52.508;13.284;2023-11-18T08:04:14;11.90;;;8.90;;
12603;SDS011;6367;52.508;13.284;2023-11-18T08:06:40;10.70;;;8.30;;
12603;SDS011;6367;52.508;13.284;2023-11-18T08:09:06;9.37;;;8.17;;
12603;SDS011;6367;52.508;13.284;2023-11-18T08:11:40;8.30;;;7.47;;
12603;SDS011;6367;52.508;13.284;2023-11-18T08:14:09;8.50;;;7.43;;
12603;SDS011;6367;52.508;13.284;2023-11-18T08:16:35;10.87;;;8.33;;
12603;SDS011;6367;52.508;13.284;2023-11-18T08:19:01;8.77;;;7.80;;
12603;SDS011;6367;52.508;13.284;2023-11-18T08:21:27;11.60;;;8.70;;
12603;SDS011;6367;52.508;13.284;2023-11-18T08:23:53;10.80;;;8.70;;
12603;SDS011;6367;52.508;13.284;2023-11-18T08:26:19;9.13;;;8.13;;
12603;SDS011;6367;52.508;13.284;2023-11-18T08:28:45;11.13;;;8.60;;
12603;SDS011;6367;52.508;13.284;2023-11-18T08:31:13;10.93;;;8.80;;
12603;SDS011;6367;52.508;13.284;2023-11-18T08:33:40;10.20;;;8.33;;
12603;SDS011;6367;52.508;13.284;2023-11-18T08:36:08;12.50;;;8.90;;
12603;SDS011;6367;52.508;13.284;2023-11-18T08:38:34;9.13;;;7.97;;
12603;SDS011;6367;52.508;13.284;2023-11-18T08:41:01;11.07;;;9.00;;
12603;SDS011;6367;52.508;13.284;2023-11-18T08:43:28;12.13;;;9.47;;
12603;SDS011;6367;52.508;13.284;2023-11-18T08:45:55;14.07;;;9.43;;
12603;SDS011;6367;52.508;13.284;2023-11-18T08:48:21;10.50;;;8.50;;
12603;SDS011;6367;52.508;13.284;2023-11-18T08:50:48;9.00;;;7.90;;
12603;SDS011;6367;52.508;13.284;2023-11-18T08:53:14;10.73;;;7.90;;
12603;SDS011;6367;52.508;13.284;2023-11-18T08:55:43;9.37;;;8.27;;
12603;SDS011;6367;52.508;13.284;2023-11-18T08:58:21;11.63;;;8.30;;
12603;SDS011;6367;52.508;13.284;2023-11-18T09:01:01;10.20;;;8.60;;
12603;SDS011;6367;52.508;13.284;2023-11-18T09:03:39;10.80;;;8.53;;
12603;SDS011;6367;52.508;13.284;2023-11-18T09:06:13;9.00;;;7.70;;
12603;SDS011;6367;52.508;13.284;2023-11-18T09:08:43;11.90;;;8.80;;
12603;SDS011;6367;52.508;13.284;2023-11-18T09:11:15;10.50;;;8.03;;
12603;SDS011;6367;52.508;13.284;2023-11-18T09:14:03;10.43;;;8.67;;
12603;SDS011;6367;52.508;13.284;2023-11-18T09:16:32;10.07;;;8.13;;
12603;SDS011;6367;52.508;13.284;2023-11-18T09:19:03;8.87;;;7.97;;
12603;SDS011;6367;52.508;13.284;2023-11-18T09:21:31;8.87;;;7.97;;
12603;SDS011;6367;52.508;13.284;2023-11-18T09:24:00;9.80;;;7.37;;
12603;SDS011;6367;52.508;13.284;2023-11-18T09:26:33;9.57;;;8.37;;
12603;SDS011;6367;52.508;13.284;2023-11-18T09:29:00;10.63;;;8.80;;
12603;SDS011;6367;52.508;13.284;2023-11-18T09:31:28;10.80;;;8.33;;
12603;SDS011;6367;52.508;13.284;2023-11-18T09:33:56;11.03;;;8.00;;
12603;SDS011;6367;52.508;13.284;2023-11-18T09:36:22;11.27;;;9.53;;
12603;SDS011;6367;52.508;13.284;2023-11-18T09:38:48;11.77;;;8.70;;
12603;SDS011;6367;52.508;13.284;2023-11-18T09:41:18;10.27;;;7.97;;
12603;SDS011;6367;52.508;13.284;2023-11-18T09:43:49;10.20;;;8.33;;
12603;SDS011;6367;52.508;13.284;2023-11-18T09:46:26;12.03;;;9.20;;
12603;SDS011;6367;52.508;13.284;2023-11-18T09:51:58;12.30;;;8.77;;
12603;SDS011;6367;52.508;13.284;2023-11-18T09:57:32;11.00;;;8.80;;
12603;SDS011;6367;52.508;13.284;2023-11-18T10:00:10;10.30;;;8.63;;
12603;SDS011;6367;52.508;13.284;2023-11-18T10:02:52;10.50;;;9.10;;
12603;SDS011;6367;52.508;13.284;2023-11-18T10:05:20;9.83;;;8.23;;
12603;SDS011;6367;52.508;13.284;2023-11-18T10:07:48;10.70;;;8.40;;
12603;SDS011;6367;52.508;13.284;2023-11-18T10:10:14;9.30;;;7.57;;
12603;SDS011;6367;52.508;13.284;2023-11-18T10:12:46;11.23;;;8.17;;
12603;SDS011;6367;52.508;13.284;2023-11-18T10:15:23;8.73;;;7.20;;
12603;SDS011;6367;52.508;13.284;2023-11-18T10:17:50;11.10;;;8.73;;
12603;SDS011;6367;52.508;13.284;2023-11-18T10:23:15;8.33;;;7.43;;
12603;SDS011;6367;52.508;13.284;2023-11-18T10:28:26;10.67;;;8.20;;
12603;SDS011;6367;52.508;13.284;2023-11-18T10:30:59;9.63;;;8.20;;
12603;SDS011;6367;52.508;13.284;2023-11-18T10:33:40;9.37;;;7.30;;
12603;SDS011;6367;52.508;13.284;2023-11-18T10:36:20;9.53;;;7.63;;
12603;SDS011;6367;52.508;13.284;2023-11-18T10:38:50;7.63;;;6.83;;
12603;SDS011;6367;52.508;13.284;2023-11-18T10:41:20;7.67;;;6.60;;
12603;SDS011;6367;52.508;13.284;2023-11-18T10:43:48;9.10;;;7.37;;
12603;SDS011;6367;52.508;13.284;2023-11-18T10:46:14;9.00;;;7.53;;
12603;SDS011;6367;52.508;13.284;2023-11-18T10:48:45;10.07;;;7.63;;
12603;SDS011;6367;52.508;13.284;2023-11-18T10:51:16;8.77;;;6.80;;
12603;SDS011;6367;52.508;13.284;2023-11-18T10:53:44;7.50;;;6.60;;
12603;SDS011;6367;52.508;13.284;2023-11-18T10:56:24;7.03;;;5.90;;
12603;SDS011;6367;52.508;13.284;2023-11-18T10:58:55;8.27;;;6.80;;
12603;SDS011;6367;52.508;13.284;2023-11-18T11:01:38;7.70;;;6.03;;
12603;SDS011;6367;52.508;13.284;2023-11-18T11:04:07;9.30;;;7.50;;
12603;SDS011;6367;52.508;13.284;2023-11-18T11:06:35;9.80;;;7.40;;
12603;SDS011;6367;52.508;13.284;2023-11-18T11:09:06;8.00;;;6.20;;
12603;SDS011;6367;52.508;13.284;2023-11-18T11:11:44;10.30;;;7.50;;
12603;SDS011;6367;52.508;13.284;2023-11-18T11:14:16;8.20;;;6.97;;
12603;SDS011;6367;52.508;13.284;2023-11-18T11:16:47;8.07;;;6.70;;
12603;SDS011;6367;52.508;13.284;2023-11-18T11:19:25;7.50;;;6.10;;
12603;SDS011;6367;52.508;13.284;2023-11-18T11:22:00;6.47;;;5.87;;
12603;SDS011;6367;52.508;13.284;2023-11-18T11:24:37;7.13;;;6.20;;
12603;SDS011;6367;52.508;13.284;2023-11-18T11:35:57;9.73;;;7.10;;
12603;SDS011;6367;52.508;13.284;2023-11-18T11:38:27;7.13;;;6.10;;
12603;SDS011;6367;52.508;13.284;2023-11-18T11:40:54;5.93;;;5.33;;
12603;SDS011;6367;52.508;13.284;2023-11-18T11:43:21;9.90;;;7.20;;
12603;SDS011;6367;52.508;13.284;2023-11-18T11:45:48;7.53;;;6.73;;
12603;SDS011;6367;52.508;13.284;2023-11-18T11:48:16;9.80;;;7.77;;
12603;SDS011;6367;52.508;13.284;2023-11-18T11:56:41;10.47;;;7.40;;
12603;SDS011;6367;52.508;13.284;2023-11-18T11:59:12;9.67;;;7.83;;
12603;SDS011;6367;52.508;13.284;2023-11-18T12:01:41;11.33;;;7.13;;
12603;SDS011;6367;52.508;13.284;2023-11-18T12:04:15;9.90;;;8.10;;
12603;SDS011;6367;52.508;13.284;2023-11-18T12:06:48;8.47;;;6.90;;
12603;SDS011;6367;52.508;13.284;2023-11-18T12:09:18;8.20;;;6.90;;
12603;SDS011;6367;52.508;13.284;2023-11-18T12:11:45;8.80;;;6.97;;
12603;SDS011;6367;52.508;13.284;2023-11-18T12:14:13;9.70;;;6.77;;
12603;SDS011;6367;52.508;13.284;2023-11-18T12:17:02;9.20;;;6.90;;
12603;SDS011;6367;52.508;13.284;2023-11-18T12:19:33;10.23;;;7.10;;
12603;SDS011;6367;52.508;13.284;2023-11-18T12:22:21;8.47;;;6.60;;
12603;SDS011;6367;52.508;13.284;2023-11-18T12:30:53;8.10;;;6.53;;
12603;SDS011;6367;52.508;13.284;2023-11-18T12:33:03;8.03;;;5.30;;
12603;SDS011;6367;52.508;13.284;2023-11-18T12:41:36;9.47;;;5.77;;
12603;SDS011;6367;52.508;13.284;2023-11-18T12:46:53;10.97;;;6.20;;
12603;SDS011;6367;52.508;13.284;2023-11-18T12:49:26;8.90;;;6.33;;
12603;SDS011;6367;52.508;13.284;2023-11-18T12:51:53;8.73;;;6.53;;
12603;SDS011;6367;52.508;13.284;2023-11-18T12:54:20;7.00;;;5.30;;
12603;SDS011;6367;52.508;13.284;2023-11-18T12:56:50;6.00;;;5.17;;
12603;SDS011;6367;52.508;13.284;2023-11-18T12:59:18;6.67;;;5.73;;
12603;SDS011;6367;52.508;13.284;2023-11-18T13:01:52;6.20;;;5.17;;
12603;SDS011;6367;52.508;13.284;2023-11-18T13:04:24;11.07;;;6.20;;
12603;SDS011;6367;52.508;13.284;2023-11-18T13:06:50;9.33;;;6.53;;
12603;SDS011;6367;52.508;13.284;2023-11-18T13:09:16;7.00;;;5.70;;
12603;SDS011;6367;52.508;13.284;2023-11-18T13:11:53;6.77;;;4.97;;
12603;SDS011;6367;52.508;13.284;2023-11-18T13:14:25;6.30;;;5.60;;
12603;SDS011;6367;52.508;13.284;2023-11-18T13:16:52;4.60;;;3.80;;
12603;SDS011;6367;52.508;13.284;2023-11-18T13:19:25;5.57;;;4.57;;
12603;SDS011;6367;52.508;13.284;2023-11-18T13:21:56;5.57;;;4.97;;
12603;SDS011;6367;52.508;13.284;2023-11-18T13:24:37;7.10;;;5.87;;
12603;SDS011;6367;52.508;13.284;2023-11-18T13:27:10;6.13;;;4.90;;
12603;SDS011;6367;52.508;13.284;2023-11-18T13:29:43;7.97;;;5.80;;
12603;SDS011;6367;52.508;13.284;2023-11-18T13:32:15;7.20;;;5.70;;
12603;SDS011;6367;52.508;13.284;2023-11-18T13:34:41;7.10;;;6.13;;
12603;SDS011;6367;52.508;13.284;2023-11-18T13:37:07;7.30;;;5.80;;
12603;SDS011;6367;52.508;13.284;2023-11-18T13:39:34;7.40;;;6.07;;
12603;SDS011;6367;52.508;13.284;2023-11-18T13:42:17;7.40;;;5.90;;
12603;SDS011;6367;52.508;13.284;2023-11-18T13:44:53;8.10;;;5.50;;
12603;SDS011;6367;52.508;13.284;2023-11-18T13:47:26;6.03;;;5.43;;
12603;SDS011;6367;52.508;13.284;2023-11-18T13:49:53;6.83;;;5.33;;
12603;SDS011;6367;52.508;13.284;2023-11-18T13:52:19;7.80;;;6.13;;
12603;SDS011;6367;52.508;13.284;2023-11-18T13:54:49;7.57;;;5.90;;
12603;SDS011;6367;52.508;13.284;2023-11-18T13:57:20;8.10;;;5.60;;
12603;SDS011;6367;52.508;13.284;2023-11-18T13:59:48;7.00;;;6.10;;
12603;SDS011;6367;52.508;13.284;2023-11-18T14:02:15;8.73;;;6.77;;
12603;SDS011;6367;52.508;13.284;2023-11-18T14:04:41;8.00;;;6.40;;
12603;SDS011;6367;52.508;13.284;2023-11-18T14:07:10;8.47;;;6.67;;
12603;SDS011;6367;52.508;13.284;2023-11-18T14:09:41;9.40;;;6.80;;
12603;SDS011;6367;52.508;13.284;2023-11-18T14:12:10;8.90;;;6.80;;
12603;SDS011;6367;52.508;13.284;2023-11-18T14:14:37;10.63;;;8.40;;
12603;SDS011;6367;52.508;13.284;2023-11-18T14:17:06;9.30;;;7.47;;
12603;SDS011;6367;52.508;13.284;2023-11-18T14:19:35;9.50;;;7.17;;
12603;SDS011;6367;52.508;13.284;2023-11-18T14:22:01;9.90;;;7.67;;
12603;SDS011;6367;52.508;13.284;2023-11-18T14:24:31;19.57;;;7.73;;
12603;SDS011;6367;52.508;13.284;2023-11-18T14:26:59;11.60;;;8.17;;
12603;SDS011;6367;52.508;13.284;2023-11-18T14:29:25;12.60;;;8.40;;
12603;SDS011;6367;52.508;13.284;2023-11-18T14:31:52;8.67;;;7.27;;
12603;SDS011;6367;52.508;13.284;2023-11-18T14:34:19;10.10;;;7.60;;
12603;SDS011;6367;52.508;13.284;2023-11-18T14:36:45;9.97;;;8.13;;
12603;SDS011;6367;52.508;13.284;2023-11-18T14:39:10;15.70;;;9.03;;
12603;SDS011;6367;52.508;13.284;2023-11-18T14:41:38;11.63;;;8.33;;
12603;SDS011;6367;52.508;13.284;2023-11-18T14:44:05;11.07;;;8.60;;
12603;SDS011;6367;52.508;13.284;2023-11-18T14:46:34;11.23;;;8.43;;
12603;SDS011;6367;52.508;13.284;2023-11-18T14:49:00;12.57;;;8.90;;
12603;SDS011;6367;52.508;13.284;2023-11-18T14:51:26;11.77;;;8.50;;
12603;SDS011;6367;52.508;13.284;2023-11-18T14:53:51;12.07;;;8.50;;
12603;SDS011;6367;52.508;13.284;2023-11-18T14:56:18;11.23;;;9.00;;
12603;SDS011;6367;52.508;13.284;2023-11-18T14:58:44;11.10;;;8.63;;
12603;SDS011;6367;52.508;13.284;2023-11-18T15:01:14;11.80;;;8.17;;
12603;SDS011;6367;52.508;13.284;2023-11-18T15:03:40;10.47;;;8.40;;
12603;SDS011;6367;52.508;13.284;2023-11-18T15:06:06;11.80;;;9.70;;
12603;SDS011;6367;52.508;13.284;2023-11-18T15:08:35;12.60;;;9.50;;
12603;SDS011;6367;52.508;13.284;2023-11-18T15:11:01;16.63;;;11.00;;
12603;SDS011;6367;52.508;13.284;2023-11-18T15:13:27;15.07;;;10.57;;
12603;SDS011;6367;52.508;13.284;2023-11-18T15:15:52;10.70;;;9.37;;
12603;SDS011;6367;52.508;13.284;2023-11-18T15:18:18;9.60;;;7.80;;
12603;SDS011;6367;52.508;13.284;2023-11-18T15:20:44;11.30;;;9.17;;
12603;SDS011;6367;52.508;13.284;2023-11-18T15:23:11;12.40;;;8.43;;
12603;SDS011;6367;52.508;13.284;2023-11-18T15:25:37;10.60;;;8.60;;
12603;SDS011;6367;52.508;13.284;2023-11-18T15:28:03;11.30;;;7.73;;
12603;SDS011;6367;52.508;13.284;2023-11-18T15:30:34;11.13;;;8.90;;
12603;SDS011;6367;52.508;13.284;2023-11-18T15:33:01;10.57;;;7.57;;
12603;SDS011;6367;52.508;13.284;2023-11-18T15:35:26;10.70;;;8.60;;
12603;SDS011;6367;52.508;13.284;2023-11-18T15:37:53;10.50;;;8.13;;